Time;durP1;ratioP1;P1;durP2;ratioP2;P2;SDS_P1;SDS_P2;PMS_P1;PMS_P2;Temp;Humidity;BMP_temperature;BMP_pressure;BME280_temperature;BME280_humidity;BME280_pressure;Samples;Min_cycle;Max_cycle;Signal;HPM_P1;HPM_P2
2023/06/20 00:00:25;;;;;;;1.70;1.50;;;;;;;25.60;57.04;98944.59;2074921;28;20057;-49
2023/06/20 00:01:28;;;;;;;2.05;1.83;;;;;;;25.62;56.43;98943.28;2073228;28;20045;-49
2023/06/20 00:02:29;;;;;;;1.75;1.65;;;;;;;25.63;56.74;98944.97;2070754;28;20092;-49
2023/06/20 00:03:30;;;;;;;1.60;1.50;;;;;;;25.59;56.99;98941.06;2070637;28;20042;-49
2023/06/20 00:04:31;;;;;;;1.65;1.55;;;;;;;25.59;57.20;98941.06;2073282;28;20046;-48
2023/06/20 00:05:33;;;;;;;1.42;1.33;;;;;;;25.62;56.83;98946.00;2075566;28;20056;-48
2023/06/20 00:06:34;;;;;;;2.65;1.80;;;;;;;25.63;56.37;98944.97;2075000;28;20544;-49
2023/06/20 00:07:35;;;;;;;1.80;1.48;;;;;;;25.60;57.05;98939.16;2071642;28;20057;-52
2023/06/20 00:08:36;;;;;;;2.15;1.73;;;;;;;25.58;56.72;98941.31;2070441;28;20042;-50
2023/06/20 00:09:38;;;;;;;2.45;2.03;;;;;;;25.59;57.08;98938.34;2071462;28;20412;-50
2023/06/20 00:10:38;;;;;;;1.88;1.70;;;;;;;25.60;56.81;98942.72;2071080;28;20053;-50
2023/06/20 00:11:40;;;;;;;1.45;1.35;;;;;;;25.59;57.10;98942.94;2072767;28;20049;-49
2023/06/20 00:12:41;;;;;;;1.58;1.48;;;;;;;25.55;57.01;98936.38;2073361;28;20411;-51
2023/06/20 00:13:43;;;;;;;2.35;1.98;;;;;;;25.59;56.95;98937.53;2073263;28;20053;-49
2023/06/20 00:14:44;;;;;;;2.13;1.92;;;;;;;25.59;56.95;98938.34;2072466;28;20327;-51
2023/06/20 00:15:45;;;;;;;2.03;1.58;;;;;;;25.59;56.64;98932.09;2070710;28;20119;-50
2023/06/20 00:16:48;;;;;;;3.50;2.03;;;;;;;25.60;56.65;98931.00;2064185;28;20143;-48
2023/06/20 00:17:49;;;;;;;2.25;2.05;;;;;;;25.59;57.00;98932.91;2072969;28;20049;-52
2023/06/20 00:18:53;;;;;;;2.05;1.85;;;;;;;25.58;56.85;98925.84;2071525;28;20084;-49
2023/06/20 00:19:55;;;;;;;3.15;1.75;;;;;;;25.60;56.77;98922.88;2073132;28;20052;-52
2023/06/20 00:20:56;;;;;;;1.73;1.63;;;;;;;25.58;57.10;98923.13;2073498;28;20053;-52
2023/06/20 00:21:58;;;;;;;2.35;1.90;;;;;;;25.58;56.63;98928.56;2069516;28;20054;-49
2023/06/20 00:23:00;;;;;;;2.38;2.17;;;;;;;25.60;56.64;98928.28;2072213;28;20053;-48
2023/06/20 00:24:02;;;;;;;1.50;1.40;;;;;;;25.60;56.89;98928.28;2069605;28;20045;-50
2023/06/20 00:25:03;;;;;;;1.77;1.67;;;;;;;25.59;56.87;98923.94;2072225;28;20069;-48
2023/06/20 00:26:05;;;;;;;1.60;1.50;;;;;;;25.57;56.71;98926.88;2071433;28;20077;-51
2023/06/20 00:27:06;;;;;;;2.13;1.92;;;;;;;25.55;57.01;98922.78;2075007;28;20140;-49
2023/06/20 00:28:08;;;;;;;1.70;1.60;;;;;;;25.57;56.98;98929.59;2072528;28;20049;-49
2023/06/20 00:29:09;;;;;;;1.52;1.42;;;;;;;25.59;56.92;98922.03;2070533;28;20530;-50
2023/06/20 00:30:12;;;;;;;2.28;2.08;;;;;;;25.56;56.75;98921.72;2072355;28;20049;-49
2023/06/20 00:31:12;;;;;;;1.85;1.75;;;;;;;25.57;56.65;98921.44;2072411;28;20155;-49
2023/06/20 00:32:16;;;;;;;2.40;2.20;;;;;;;25.58;56.82;98925.84;2073331;28;20611;-48
2023/06/20 00:33:18;;;;;;;1.67;1.58;;;;;;;25.57;57.02;98918.75;2075312;28;20140;-50
2023/06/20 00:34:20;;;;;;;1.65;1.55;;;;;;;25.56;57.06;98930.69;2072620;28;20057;-49
2023/06/20 00:35:21;;;;;;;2.22;1.88;;;;;;;25.54;57.33;98919.22;2074503;28;20069;-48
2023/06/20 00:36:25;;;;;;;1.90;1.70;;;;;;;25.54;56.84;98924.66;2070133;28;20974;-49
2023/06/20 00:37:26;;;;;;;1.90;1.60;;;;;;;25.56;57.09;98921.72;2069041;28;20050;-49
2023/06/20 00:38:29;;;;;;;1.80;1.60;;;;;;;25.56;56.81;98922.53;2071561;28;20602;-50
2023/06/20 00:39:30;;;;;;;1.73;1.63;;;;;;;25.55;56.71;98920.91;2075986;28;20045;-50
2023/06/20 00:40:32;;;;;;;2.42;2.22;;;;;;;25.55;57.06;98918.19;2071755;28;20052;-49
2023/06/20 00:41:33;;;;;;;2.90;1.67;;;;;;;25.56;57.31;98916.28;2071050;28;20049;-49
2023/06/20 00:42:35;;;;;;;2.22;2.05;;;;;;;25.56;57.11;98919.81;2070898;28;20057;-50
2023/06/20 00:43:36;;;;;;;1.80;1.48;;;;;;;25.57;57.15;98916.03;2069937;28;20092;-49
2023/06/20 00:44:38;;;;;;;1.20;1.10;;;;;;;25.58;56.64;98917.69;2072835;28;20050;-51
2023/06/20 00:45:38;;;;;;;1.63;1.52;;;;;;;25.55;57.06;98911.94;2069819;28;20069;-52
2023/06/20 00:46:41;;;;;;;1.52;1.42;;;;;;;25.56;57.02;98911.66;2069113;28;20046;-52
2023/06/20 00:47:43;;;;;;;1.75;1.65;;;;;;;25.57;57.14;98909.78;2072501;28;20045;-51
2023/06/20 00:48:45;;;;;;;2.03;1.50;;;;;;;25.56;56.66;98910.84;2071094;28;20170;-50
2023/06/20 00:49:48;;;;;;;1.67;1.58;;;;;;;25.55;57.09;98910.03;2072164;28;20646;-52
2023/06/20 00:50:52;;;;;;;2.05;1.85;;;;;;;25.57;56.49;98907.88;2073929;28;20077;-50
2023/06/20 00:51:53;;;;;;;1.75;1.65;;;;;;;25.56;56.79;98900.81;2069547;28;20060;-49
2023/06/20 00:52:59;;;;;;;2.30;2.10;;;;;;;25.56;57.11;98911.66;2069394;28;20563;-51
2023/06/20 00:54:02;;;;;;;1.70;1.60;;;;;;;25.54;57.07;98902.94;2070798;28;20061;-49
2023/06/20 00:55:04;;;;;;;1.50;1.40;;;;;;;25.53;56.50;98906.72;2071069;28;20148;-51
2023/06/20 00:56:06;;;;;;;1.55;1.45;;;;;;;25.52;56.60;98896.94;2070656;28;20088;-51
2023/06/20 00:57:08;;;;;;;1.50;1.40;;;;;;;25.52;56.82;98896.94;2075233;28;20144;-49
2023/06/20 00:58:08;;;;;;;2.13;1.80;;;;;;;25.53;56.62;98890.44;2073141;28;20049;-50
2023/06/20 00:59:10;;;;;;;1.88;1.77;;;;;;;25.54;56.61;98894.78;2071490;28;20045;-49
2023/06/20 01:00:13;;;;;;;1.92;1.77;;;;;;;25.56;56.73;98891.84;2072509;28;20111;-49
2023/06/20 01:01:16;;;;;;;1.92;1.75;;;;;;;25.55;56.92;98893.75;2072176;28;20045;-50
2023/06/20 01:02:17;;;;;;;1.60;1.50;;;;;;;25.55;56.77;98891.03;2071977;28;20056;-50
2023/06/20 01:03:21;;;;;;;1.80;1.70;;;;;;;25.56;56.62;98884.50;2075925;28;20562;-49
2023/06/20 01:04:22;;;;;;;1.88;1.65;;;;;;;25.56;56.64;98889.94;2070714;28;20049;-50
2023/06/20 01:05:27;;;;;;;2.20;1.90;;;;;;;25.55;56.92;98887.47;2070753;28;20581;-51
2023/06/20 01:06:35;;;;;;;1.70;1.60;;;;;;;25.54;57.02;98886.63;2072229;28;20053;-49
2023/06/20 01:07:43;;;;;;;1.40;1.30;;;;;;;25.56;56.85;98895.38;2073945;28;20136;-52
2023/06/20 01:08:57;;;;;;;2.47;1.73;;;;;;;25.56;56.62;98895.38;2071085;28;20050;-49
2023/06/20 01:10:07;;;;;;;2.30;2.10;;;;;;;25.53;57.14;98890.44;2071584;28;20054;-48
2023/06/20 01:11:18;;;;;;;2.05;1.85;;;;;;;25.48;56.98;98890.31;2069539;28;20637;-51
2023/06/20 01:12:27;;;;;;;2.65;1.70;;;;;;;25.51;56.74;98889.03;2069302;28;20143;-50
2023/06/20 01:13:36;;;;;;;1.63;1.52;;;;;;;25.48;56.92;98887.63;2064066;28;20081;-53
2023/06/20 01:14:44;;;;;;;1.77;1.67;;;;;;;25.49;57.14;98888.44;2072725;28;20056;-50
2023/06/20 01:15:52;;;;;;;1.63;1.48;;;;;;;25.51;56.92;98887.13;2071930;28;20126;-49
2023/06/20 01:17:00;;;;;;;1.42;1.33;;;;;;;25.49;56.94;98883.00;2070588;28;20054;-48
2023/06/20 01:18:08;;;;;;;2.10;1.98;;;;;;;25.49;57.41;98883.84;2071511;28;20049;-48
2023/06/20 01:19:33;;;;;;;2.08;1.90;;;;;;;25.47;56.98;98880.53;2073477;28;20080;-51
2023/06/20 01:20:43;;;;;;;2.05;1.80;;;;;;;25.48;56.88;98882.19;2071682;28;20045;-49
2023/06/20 01:21:51;;;;;;;1.67;1.58;;;;;;;25.49;56.93;98881.13;2070724;28;20054;-48
2023/06/20 01:23:02;;;;;;;2.28;1.85;;;;;;;25.47;57.39;98875.13;2071986;28;20163;-50
2023/06/20 01:24:10;;;;;;;1.73;1.58;;;;;;;25.48;57.09;98881.38;2074475;28;20041;-48
2023/06/20 01:25:23;;;;;;;1.98;1.73;;;;;;;25.50;57.21;98873.81;2071146;28;20462;-49
2023/06/20 01:26:32;;;;;;;1.90;1.80;;;;;;;25.48;57.05;98868.59;2071644;28;20077;-49
2023/06/20 01:27:37;;;;;;;2.15;1.95;;;;;;;25.48;57.07;98863.16;2073300;28;20058;-48
2023/06/20 01:28:42;;;;;;;2.08;1.88;;;;;;;25.49;57.06;98867.56;2073745;28;20602;-49
2023/06/20 01:29:58;;;;;;;1.80;1.52;;;;;;;25.48;56.76;98871.31;2072568;28;20050;-48
2023/06/20 01:31:04;;;;;;;2.00;1.77;;;;;;;25.48;56.98;98865.88;2072099;28;20060;-48
2023/06/20 01:32:11;;;;;;;1.58;1.48;;;;;;;25.46;56.99;98862.59;2070681;28;20573;-50
2023/06/20 01:33:15;;;;;;;2.15;1.95;;;;;;;25.48;57.07;98865.88;2070740;28;20046;-50
2023/06/20 01:34:20;;;;;;;1.88;1.63;;;;;;;25.49;57.07;98864.00;2072561;28;20603;-50
2023/06/20 01:35:27;;;;;;;1.75;1.65;;;;;;;25.51;57.04;98864.56;2072801;28;20045;-48
2023/06/20 01:36:33;;;;;;;1.77;1.67;;;;;;;25.49;57.32;98867.56;2072087;28;20045;-47
2023/06/20 01:37:38;;;;;;;2.33;1.73;;;;;;;25.48;57.30;98863.16;2070651;28;20060;-49
2023/06/20 01:38:44;;;;;;;1.67;1.58;;;;;;;25.50;56.79;98863.75;2072630;28;20129;-53
2023/06/20 01:39:48;;;;;;;2.03;1.83;;;;;;;25.50;56.75;98869.19;2071874;28;20080;-53
2023/06/20 01:40:50;;;;;;;2.00;1.73;;;;;;;25.52;56.46;98877.94;2071324;28;20073;-55
2023/06/20 01:41:56;;;;;;;2.13;1.92;;;;;;;25.49;56.63;98870.28;2065781;28;20042;-51
2023/06/20 01:42:59;;;;;;;1.92;1.83;;;;;;;25.50;56.65;98869.19;2071084;28;20493;-53
2023/06/20 01:44:04;;;;;;;1.92;1.75;;;;;;;25.51;57.10;98872.72;2071433;28;20064;-48
2023/06/20 01:45:08;;;;;;;1.40;1.30;;;;;;;25.50;56.69;98863.75;2071474;28;20062;-51
2023/06/20 01:46:11;;;;;;;2.15;1.95;;;;;;;25.50;57.09;98869.19;2071691;28;20075;-50
2023/06/20 01:47:14;;;;;;;2.85;1.90;;;;;;;25.49;56.64;98875.69;2073060;28;20054;-51
2023/06/20 01:48:18;;;;;;;1.50;1.40;;;;;;;25.50;56.94;98873.81;2073604;28;20053;-54
2023/06/20 01:49:19;;;;;;;2.08;1.52;;;;;;;25.49;57.02;98872.97;2073010;28;20110;-47
2023/06/20 01:50:23;;;;;;;2.40;1.70;;;;;;;25.48;56.92;98871.31;2066967;28;20080;-52
2023/06/20 01:51:25;;;;;;;1.60;1.50;;;;;;;25.49;56.51;98869.41;2068607;28;20452;-49
2023/06/20 01:52:27;;;;;;;1.85;1.75;;;;;;;25.49;56.65;98875.69;2073486;28;20045;-51
2023/06/20 01:53:29;;;;;;;2.33;1.98;;;;;;;25.53;56.64;98873.31;2072349;28;20042;-47
2023/06/20 01:54:35;;;;;;;2.92;2.25;;;;;;;25.50;56.90;98869.19;2071770;28;20071;-49
2023/06/20 01:55:38;;;;;;;1.67;1.58;;;;;;;25.50;56.92;98873.81;2070193;28;20120;-55
2023/06/20 01:56:40;;;;;;;1.55;1.45;;;;;;;25.51;56.46;98875.44;2073678;28;20080;-54
2023/06/20 01:57:42;;;;;;;1.85;1.75;;;;;;;25.50;57.02;98871.91;2072656;28;20103;-52
2023/06/20 01:58:46;;;;;;;1.70;1.60;;;;;;;25.50;57.20;98880.06;2072694;28;20052;-48
2023/06/20 01:59:47;;;;;;;2.03;1.77;;;;;;;25.52;56.45;98877.06;2071986;28;20053;-51
2023/06/20 02:00:49;;;;;;;1.58;1.48;;;;;;;25.50;56.75;98873.81;2072388;28;20115;-53
2023/06/20 02:01:52;;;;;;;1.75;1.55;;;;;;;25.50;56.82;98873.81;2072375;28;20046;-54
2023/06/20 02:02:57;;;;;;;1.63;1.50;;;;;;;25.50;56.81;98868.38;2072154;28;20073;-50
2023/06/20 02:03:59;;;;;;;1.67;1.48;;;;;;;25.48;56.60;98865.88;2068526;28;20115;-54
2023/06/20 02:05:03;;;;;;;1.52;1.23;;;;;;;25.49;56.52;98867.56;2073389;28;20049;-54
2023/06/20 02:06:04;;;;;;;2.00;1.67;;;;;;;25.50;56.96;98869.19;2072043;28;20141;-50
2023/06/20 02:07:08;;;;;;;2.10;1.90;;;;;;;25.50;56.59;98871.91;2070899;28;20224;-53
2023/06/20 02:08:10;;;;;;;2.67;2.22;;;;;;;25.47;56.80;98872.41;2071809;28;20081;-51
2023/06/20 02:09:14;;;;;;;2.15;1.95;;;;;;;25.47;57.07;98874.28;2072388;28;20613;-48
2023/06/20 02:10:16;;;;;;;1.73;1.63;;;;;;;25.47;56.69;98872.41;2071375;28;20128;-52
2023/06/20 02:11:20;;;;;;;1.55;1.40;;;;;;;25.47;56.52;98872.41;2070383;28;20121;-52
2023/06/20 02:12:21;;;;;;;8.70;2.10;;;;;;;25.46;56.51;98872.63;2073539;28;20045;-49
2023/06/20 02:13:24;;;;;;;1.75;1.63;;;;;;;25.47;57.18;98875.13;2073040;28;20045;-55
2023/06/20 02:14:25;;;;;;;2.25;1.90;;;;;;;25.47;56.96;98871.56;2068944;28;20144;-53
2023/06/20 02:15:29;;;;;;;1.63;1.52;;;;;;;25.51;56.95;98878.16;2072037;28;20042;-53
2023/06/20 02:16:32;;;;;;;1.50;1.38;;;;;;;25.48;56.72;98870.50;2069993;28;20120;-50
2023/06/20 02:17:35;;;;;;;1.85;1.75;;;;;;;25.48;56.74;98873.22;2075310;28;20441;-50
2023/06/20 02:18:36;;;;;;;2.00;1.90;;;;;;;25.47;56.85;98875.13;2068998;28;20085;-51
2023/06/20 02:19:37;;;;;;;2.47;2.20;;;;;;;25.47;56.85;98877.00;2072522;28;20049;-52
2023/06/20 02:20:38;;;;;;;2.25;1.80;;;;;;;25.44;56.69;98878.31;2071753;28;20050;-55
2023/06/20 02:21:43;;;;;;;1.65;1.55;;;;;;;25.46;57.04;98880.78;2074736;28;20223;-53
2023/06/20 02:22:46;;;;;;;1.80;1.58;;;;;;;25.46;56.68;98876.16;2070684;28;20515;-50
2023/06/20 02:23:50;;;;;;;2.78;2.40;;;;;;;25.48;57.17;98886.78;2068593;28;20540;-49
2023/06/20 02:24:58;;;;;;;1.98;1.60;;;;;;;25.48;56.81;98886.78;2069943;28;20666;-50
2023/06/20 02:26:08;;;;;;;2.03;1.83;;;;;;;25.46;56.63;98881.59;2072139;28;20061;-51
2023/06/20 02:27:13;;;;;;;1.80;1.67;;;;;;;25.44;56.96;98880.22;2070904;28;20226;-53
2023/06/20 02:28:16;;;;;;;1.98;1.75;;;;;;;25.45;56.62;98884.56;2071010;28;20049;-50
2023/06/20 02:29:19;;;;;;;2.10;1.77;;;;;;;25.46;57.13;98881.59;2071949;28;20510;-51
2023/06/20 02:30:26;;;;;;;1.92;1.73;;;;;;;25.44;57.07;98878.31;2072098;28;20324;-51
2023/06/20 02:31:31;;;;;;;1.80;1.52;;;;;;;25.45;56.72;98873.69;2072814;28;20095;-54
2023/06/20 02:32:33;;;;;;;1.92;1.63;;;;;;;25.45;56.80;98879.13;2072506;28;20092;-48
2023/06/20 02:33:36;;;;;;;2.03;1.83;;;;;;;25.45;56.94;98877.25;2071463;28;20054;-49
2023/06/20 02:34:41;;;;;;;1.75;1.65;;;;;;;25.45;56.98;98877.25;2072496;28;20064;-54
2023/06/20 02:35:43;;;;;;;2.08;1.88;;;;;;;25.46;56.60;98878.06;2071056;28;20050;-55
2023/06/20 02:36:46;;;;;;;2.15;1.70;;;;;;;25.47;56.59;98877.00;2071845;28;20470;-50
2023/06/20 02:37:48;;;;;;;2.10;1.90;;;;;;;25.44;57.15;98877.50;2070284;28;20103;-47
2023/06/20 02:38:50;;;;;;;1.70;1.60;;;;;;;25.44;57.13;98886.47;2073403;28;20650;-53
2023/06/20 02:39:51;;;;;;;1.92;1.73;;;;;;;25.42;57.32;98883.16;2071772;28;20144;-51
2023/06/20 02:40:52;;;;;;;2.22;1.85;;;;;;;25.44;57.05;98881.03;2072037;28;20045;-54
2023/06/20 02:41:54;;;;;;;1.95;1.73;;;;;;;25.45;57.28;98881.84;2069474;28;20452;-54
2023/06/20 02:42:56;;;;;;;1.73;1.45;;;;;;;25.44;56.70;98882.94;2068442;28;20046;-50
2023/06/20 02:43:57;;;;;;;1.75;1.65;;;;;;;25.42;56.75;98892.13;2070670;28;20086;-48
2023/06/20 02:44:59;;;;;;;1.55;1.45;;;;;;;25.44;57.34;98888.34;2070874;28;20049;-51
2023/06/20 02:46:06;;;;;;;2.20;1.90;;;;;;;25.42;56.95;98892.13;2071865;28;20061;-50
2023/06/20 02:47:20;;;;;;;2.55;2.35;;;;;;;25.41;56.78;98892.38;2069821;28;20049;-48
2023/06/20 02:48:28;;;;;;;1.65;1.55;;;;;;;25.39;57.17;98894.50;2072379;28;20084;-52
2023/06/20 02:49:40;;;;;;;2.15;1.48;;;;;;;25.39;57.35;98894.50;2071687;28;20057;-51
2023/06/20 02:50:48;;;;;;;1.85;1.75;;;;;;;25.41;57.25;98897.81;2071005;28;20067;-51
2023/06/20 02:52:01;;;;;;;2.50;1.52;;;;;;;25.39;57.02;98900.75;2066985;28;20136;-55
2023/06/20 02:53:15;;;;;;;2.53;1.60;;;;;;;25.39;57.15;98897.22;2070505;28;20045;-54
2023/06/20 02:54:21;;;;;;;1.60;1.45;;;;;;;25.40;57.02;98902.38;2073142;28;20065;-50
2023/06/20 02:55:27;;;;;;;1.50;1.40;;;;;;;25.39;57.01;98908.91;2073936;28;20065;-50
2023/06/20 02:56:32;;;;;;;1.63;1.52;;;;;;;25.41;57.24;98908.66;2072618;28;20045;-51
2023/06/20 02:57:38;;;;;;;1.48;1.38;;;;;;;25.39;57.22;98916.22;2071941;28;20080;-51
2023/06/20 02:58:44;;;;;;;1.65;1.55;;;;;;;25.40;56.86;98915.16;2071008;28;20046;-54
2023/06/20 02:59:50;;;;;;;2.10;1.90;;;;;;;25.40;56.93;98923.28;2070323;28;20049;-51
2023/06/20 03:00:53;;;;;;;1.42;1.33;;;;;;;25.40;57.48;98923.28;2071934;28;20470;-49
2023/06/20 03:01:57;;;;;;;1.73;1.63;;;;;;;25.41;57.21;98917.63;2072129;28;20096;-51
2023/06/20 03:03:04;;;;;;;2.10;1.88;;;;;;;25.41;57.12;98914.09;2070386;28;20057;-54
2023/06/20 03:04:06;;;;;;;2.50;2.05;;;;;;;25.40;57.00;98917.88;2071195;28;20132;-52
2023/06/20 03:05:11;;;;;;;1.77;1.67;;;;;;;25.40;57.10;98917.88;2069910;28;20928;-50
2023/06/20 03:06:15;;;;;;;1.85;1.75;;;;;;;25.39;56.83;98922.47;2072344;28;20053;-49
2023/06/20 03:07:19;;;;;;;2.25;1.65;;;;;;;25.40;57.19;98928.72;2071649;28;20128;-51
2023/06/20 03:08:22;;;;;;;1.73;1.63;;;;;;;25.40;56.94;98931.44;2071689;28;20049;-50
2023/06/20 03:09:25;;;;;;;2.13;1.92;;;;;;;25.40;56.97;98926.84;2069878;28;20579;-53
2023/06/20 03:10:26;;;;;;;2.03;1.13;;;;;;;25.41;57.06;98930.41;2071665;28;20564;-51
2023/06/20 03:11:28;;;;;;;1.92;1.65;;;;;;;25.41;57.20;98936.66;2070228;28;20099;-50
2023/06/20 03:12:29;;;;;;;1.65;1.55;;;;;;;25.43;56.79;98928.25;2076820;28;20174;-51
2023/06/20 03:13:32;;;;;;;1.80;1.70;;;;;;;25.42;56.89;98934.75;2072365;28;20530;-52
2023/06/20 03:14:33;;;;;;;1.58;1.48;;;;;;;25.40;57.00;98924.13;2072373;28;20141;-53
2023/06/20 03:15:35;;;;;;;2.45;1.92;;;;;;;25.39;56.95;98932.53;2071715;28;20045;-49
2023/06/20 03:16:35;;;;;;;1.55;1.45;;;;;;;25.40;56.52;98928.72;2074883;28;20171;-54
2023/06/20 03:17:37;;;;;;;1.80;1.63;;;;;;;25.42;56.62;98927.44;2073936;28;20054;-50
2023/06/20 03:18:38;;;;;;;1.58;1.45;;;;;;;25.40;56.82;98926.00;2070004;28;20054;-55
2023/06/20 03:19:40;;;;;;;1.98;1.70;;;;;;;25.41;56.78;98924.97;2070865;28;20419;-53
2023/06/20 03:20:43;;;;;;;1.75;1.65;;;;;;;25.39;57.14;98924.38;2072174;28;20050;-50
2023/06/20 03:21:45;;;;;;;3.38;1.98;;;;;;;25.41;57.05;98925.78;2068559;28;20053;-49
2023/06/20 03:22:45;;;;;;;2.15;1.95;;;;;;;25.42;57.01;98924.72;2071486;28;20081;-51
2023/06/20 03:23:47;;;;;;;3.03;1.90;;;;;;;25.42;56.91;98915.75;2071222;28;20495;-50
2023/06/20 03:24:49;;;;;;;1.35;1.25;;;;;;;25.42;57.23;98926.59;2072983;28;20049;-50
2023/06/20 03:25:50;;;;;;;1.52;1.42;;;;;;;25.41;57.15;98930.41;2074617;28;20072;-49
2023/06/20 03:26:51;;;;;;;2.00;1.80;;;;;;;25.40;56.77;98929.53;2073262;28;20101;-50
2023/06/20 03:27:53;;;;;;;1.40;1.30;;;;;;;25.41;56.73;98930.41;2074626;28;20127;-47
2023/06/20 03:28:55;;;;;;;2.28;1.92;;;;;;;25.40;57.15;98940.41;2074281;28;20571;-50
2023/06/20 03:29:57;;;;;;;1.90;1.80;;;;;;;25.39;56.90;98927.91;2072876;28;20045;-50
2023/06/20 03:30:57;;;;;;;1.55;1.42;;;;;;;25.42;56.53;98937.47;2071789;28;20049;-51
2023/06/20 03:31:59;;;;;;;1.98;1.85;;;;;;;25.41;56.85;98938.53;2072091;28;20054;-49
2023/06/20 03:33:00;;;;;;;1.50;1.40;;;;;;;25.40;56.71;98934.16;2073336;28;20053;-50
2023/06/20 03:34:01;;;;;;;2.40;1.98;;;;;;;25.41;56.63;98939.38;2071758;28;20388;-52
2023/06/20 03:35:04;;;;;;;2.08;1.88;;;;;;;25.39;57.12;98938.78;2074464;28;20132;-51
2023/06/20 03:36:09;;;;;;;1.88;1.77;;;;;;;25.41;56.70;98941.25;2073637;28;20206;-48
2023/06/20 03:37:10;;;;;;;2.00;1.80;;;;;;;25.40;56.60;98939.59;2074867;28;20519;-48
2023/06/20 03:38:13;;;;;;;2.50;2.10;;;;;;;25.38;57.10;98941.72;2074120;28;20056;-51
2023/06/20 03:39:13;;;;;;;2.22;1.95;;;;;;;25.38;57.19;98941.72;2071028;28;20049;-50
2023/06/20 03:40:15;;;;;;;2.05;1.85;;;;;;;25.37;56.74;98943.59;2071056;28;20041;-51
2023/06/20 03:41:16;;;;;;;2.25;1.95;;;;;;;25.37;56.85;98940.91;2067252;28;20065;-51
2023/06/20 03:42:17;;;;;;;1.60;1.50;;;;;;;25.38;57.05;98944.44;2069779;28;20069;-50
2023/06/20 03:43:18;;;;;;;2.03;1.63;;;;;;;25.39;56.66;98944.19;2072593;28;20050;-51
2023/06/20 03:44:21;;;;;;;1.77;1.67;;;;;;;25.38;56.91;98942.56;2075166;28;20111;-48
2023/06/20 03:45:22;;;;;;;2.15;1.85;;;;;;;25.38;56.85;98945.28;2071390;28;20546;-50
2023/06/20 03:46:23;;;;;;;1.65;1.55;;;;;;;25.37;57.04;98943.59;2073122;28;20054;-50
2023/06/20 03:47:24;;;;;;;2.00;1.77;;;;;;;25.37;57.17;98940.06;2073622;28;20084;-53
2023/06/20 03:48:26;;;;;;;2.03;1.83;;;;;;;25.38;57.10;98933.56;2070008;28;21767;-50
2023/06/20 03:49:26;;;;;;;1.55;1.45;;;;;;;25.37;57.23;98932.75;2072299;28;20049;-51
2023/06/20 03:50:28;;;;;;;1.70;1.60;;;;;;;25.38;57.14;98941.72;2072501;28;20056;-51
2023/06/20 03:51:29;;;;;;;1.95;1.85;;;;;;;25.37;56.54;98935.47;2073926;28;20165;-54
2023/06/20 03:52:30;;;;;;;1.77;1.65;;;;;;;25.38;56.77;98937.13;2072286;28;20475;-51
2023/06/20 03:53:31;;;;;;;1.45;1.35;;;;;;;25.37;57.13;98940.06;2071864;28;20194;-52
2023/06/20 03:54:34;;;;;;;1.95;1.80;;;;;;;25.39;56.48;98946.09;2072930;28;20129;-53
2023/06/20 03:55:35;;;;;;;1.33;1.23;;;;;;;25.37;57.22;98942.78;2073693;28;20045;-51
2023/06/20 03:56:37;;;;;;;1.65;1.52;;;;;;;25.37;56.89;98943.59;2073664;28;20041;-50
2023/06/20 03:57:37;;;;;;;2.38;1.85;;;;;;;25.37;56.98;98940.06;2071495;28;20149;-50
2023/06/20 03:58:40;;;;;;;1.73;1.63;;;;;;;25.35;56.93;98937.63;2071649;28;20436;-50
2023/06/20 03:59:42;;;;;;;1.92;1.73;;;;;;;25.38;56.84;98936.28;2070935;28;20077;-52
2023/06/20 04:00:43;;;;;;;1.60;1.50;;;;;;;25.37;56.83;98935.47;2073066;28;20052;-50
2023/06/20 04:01:44;;;;;;;2.13;1.63;;;;;;;25.37;57.07;98938.19;2071608;28;20081;-49
2023/06/20 04:02:46;;;;;;;1.77;1.65;;;;;;;25.37;56.83;98940.06;2070995;28;20045;-51
2023/06/20 04:03:46;;;;;;;1.90;1.58;;;;;;;25.37;57.09;98945.50;2072111;28;20430;-51
2023/06/20 04:04:49;;;;;;;2.00;1.77;;;;;;;25.37;56.83;98943.59;2074554;28;20736;-50
2023/06/20 04:05:51;;;;;;;1.55;1.30;;;;;;;25.37;56.95;98942.78;2071845;28;20041;-52
2023/06/20 04:06:52;;;;;;;1.55;1.45;;;;;;;25.35;57.39;98937.63;2071297;28;20136;-49
2023/06/20 04:07:53;;;;;;;2.30;2.05;;;;;;;25.35;57.09;98931.34;2071229;28;20176;-50
2023/06/20 04:08:55;;;;;;;1.52;1.42;;;;;;;25.35;56.83;98929.47;2072213;28;20204;-49
2023/06/20 04:09:56;;;;;;;1.63;1.38;;;;;;;25.35;56.72;98925.91;2075136;28;20076;-50
2023/06/20 04:10:57;;;;;;;1.60;1.40;;;;;;;25.35;57.20;98924.03;2072743;28;20057;-50
2023/06/20 04:11:58;;;;;;;2.30;2.00;;;;;;;25.34;56.96;98930.50;2072648;28;22459;-48
2023/06/20 04:13:00;;;;;;;2.10;1.80;;;;;;;25.32;56.85;98919.06;2068993;28;20471;-50
2023/06/20 04:14:01;;;;;;;1.55;1.38;;;;;;;25.33;56.94;98922.63;2070931;28;20042;-50
2023/06/20 04:15:04;;;;;;;2.30;1.77;;;;;;;25.34;57.24;98919.66;2073786;28;20136;-51
2023/06/20 04:16:05;;;;;;;1.60;1.50;;;;;;;25.35;56.92;98915.91;2073422;28;20503;-48
2023/06/20 04:17:07;;;;;;;1.88;1.63;;;;;;;25.34;57.29;98918.84;2074284;28;20060;-48
2023/06/20 04:18:08;;;;;;;1.73;1.63;;;;;;;25.34;57.22;98918.84;2069936;28;20073;-50
2023/06/20 04:19:09;;;;;;;2.70;1.65;;;;;;;25.34;57.24;98908.78;2074133;28;20627;-48
2023/06/20 04:20:12;;;;;;;1.75;1.65;;;;;;;25.33;56.96;98919.91;2067508;28;20038;-53
2023/06/20 04:21:16;;;;;;;1.95;1.77;;;;;;;25.34;57.14;98925.09;2070703;28;20053;-50
2023/06/20 04:22:16;;;;;;;1.70;1.60;;;;;;;25.32;57.13;98927.22;2072397;28;20049;-50
2023/06/20 04:23:18;;;;;;;2.15;1.95;;;;;;;25.34;56.89;98926.97;2073551;28;20124;-50
2023/06/20 04:24:19;;;;;;;2.30;1.55;;;;;;;25.34;56.92;98926.97;2070066;28;20111;-48
2023/06/20 04:25:21;;;;;;;1.75;1.38;;;;;;;25.32;57.40;98921.78;2073177;28;20041;-51
2023/06/20 04:26:21;;;;;;;1.60;1.50;;;;;;;25.34;56.64;98921.56;2071702;28;20144;-50
2023/06/20 04:27:23;;;;;;;1.52;1.42;;;;;;;25.35;56.76;98924.03;2072835;28;20466;-49
2023/06/20 04:28:24;;;;;;;1.95;1.83;;;;;;;25.34;57.06;98926.97;2071834;28;20049;-47
2023/06/20 04:29:29;;;;;;;2.30;2.03;;;;;;;25.34;56.42;98929.69;2072071;28;20116;-49
2023/06/20 04:30:31;;;;;;;1.95;1.75;;;;;;;25.35;57.30;98931.34;2071251;28;20041;-49
2023/06/20 04:31:33;;;;;;;1.70;1.60;;;;;;;25.34;56.95;98924.28;2063996;28;20079;-48
2023/06/20 04:32:34;;;;;;;1.77;1.55;;;;;;;25.34;57.32;98926.97;2070640;28;20157;-50
2023/06/20 04:33:36;;;;;;;2.67;2.00;;;;;;;25.34;57.38;98924.28;2075500;28;20056;-49
2023/06/20 04:34:36;;;;;;;2.10;1.75;;;;;;;25.34;56.86;98925.09;2071935;28;20081;-56
2023/06/20 04:35:40;;;;;;;1.50;1.40;;;;;;;25.32;57.32;98927.22;2072999;28;20045;-50
2023/06/20 04:36:41;;;;;;;1.83;1.73;;;;;;;25.32;57.19;98927.22;2072027;28;20054;-50
2023/06/20 04:37:43;;;;;;;2.75;2.00;;;;;;;25.32;57.11;98924.50;2073737;28;20103;-49
2023/06/20 04:38:44;;;;;;;1.85;1.75;;;;;;;25.34;57.32;98918.84;2073158;28;20045;-51
2023/06/20 04:39:45;;;;;;;1.52;1.40;;;;;;;25.33;57.20;98928.06;2070553;28;20496;-52
2023/06/20 04:40:46;;;;;;;1.92;1.65;;;;;;;25.34;56.75;98921.56;2071162;28;20048;-49
2023/06/20 04:41:48;;;;;;;2.05;1.70;;;;;;;25.32;57.42;98924.50;2073792;28;20053;-49
2023/06/20 04:42:49;;;;;;;2.40;2.00;;;;;;;25.33;57.07;98928.06;2072409;28;20111;-49
2023/06/20 04:43:50;;;;;;;1.20;1.20;;;;;;;25.32;56.70;98931.81;2072832;28;20122;-50
2023/06/20 04:44:51;;;;;;;1.67;1.58;;;;;;;25.32;57.03;98921.78;2072662;28;20133;-50
2023/06/20 04:45:56;;;;;;;1.50;1.40;;;;;;;25.32;56.80;98923.69;2075206;28;20052;-48
2023/06/20 04:46:58;;;;;;;1.60;1.50;;;;;;;25.32;57.25;98926.38;2072180;28;20511;-50
2023/06/20 04:47:59;;;;;;;1.92;1.60;;;;;;;25.33;57.25;98925.34;2074402;28;20073;-49
2023/06/20 04:49:01;;;;;;;1.65;1.55;;;;;;;25.32;56.87;98920.97;2069837;28;20527;-48
2023/06/20 04:50:03;;;;;;;1.80;1.70;;;;;;;25.32;57.27;98926.38;2070998;28;20111;-51
2023/06/20 04:51:07;;;;;;;1.80;1.70;;;;;;;25.31;57.37;98927.47;2074212;28;20396;-49
2023/06/20 04:52:08;;;;;;;1.77;1.67;;;;;;;25.32;56.88;98932.63;2071021;28;20111;-48
2023/06/20 04:53:10;;;;;;;1.67;1.42;;;;;;;25.31;56.86;98930.19;2072220;28;20119;-51
2023/06/20 04:54:10;;;;;;;1.83;1.73;;;;;;;25.31;56.93;98931.00;2071115;28;20091;-50
2023/06/20 04:55:12;;;;;;;1.75;1.63;;;;;;;25.30;57.19;98929.38;2071252;28;20065;-49
2023/06/20 04:56:15;;;;;;;1.50;1.38;;;;;;;25.30;56.90;98940.22;2074097;28;20144;-51
2023/06/20 04:57:17;;;;;;;1.27;1.17;;;;;;;25.30;56.87;98942.94;2074544;28;20132;-53